sensor_id;sensor_type;location;lat;lon;timestamp;P1;durP1;ratioP1;P2;durP2;ratioP2
50968;SDS011;36982;51.474;7.228;2023-11-21T00:02:02;9.57;;;6.30;;
50968;SDS011;36982;51.474;7.228;2023-11-21T00:04:29;9.27;;;6.30;;
50968;SDS011;36982;51.474;7.228;2023-11-21T00:06:55;11.33;;;6.27;;
50968;SDS011;36982;51.474;7.228;2023-11-21T00:09:20;11.00;;;6.40;;
50968;SDS011;36982;51.474;7.228;2023-11-21T00:11:46;12.83;;;6.77;;
50968;SDS011;36982;51.474;7.228;2023-11-21T00:14:12;13.03;;;6.80;;
50968;SDS011;36982;51.474;7.228;2023-11-21T00:16:40;10.47;;;6.50;;
50968;SDS011;36982;51.474;7.228;2023-11-21T00:19:06;10.77;;;6.80;;
50968;SDS011;36982;51.474;7.228;2023-11-21T00:21:31;11.97;;;6.97;;
50968;SDS011;36982;51.474;7.228;2023-11-21T00:23:57;13.37;;;7.17;;
50968;SDS011;36982;51.474;7.228;2023-11-21T00:26:23;10.03;;;6.20;;
50968;SDS011;36982;51.474;7.228;2023-11-21T00:28:49;12.77;;;7.20;;
50968;SDS011;36982;51.474;7.228;2023-11-21T00:31:15;11.17;;;5.73;;
50968;SDS011;36982;51.474;7.228;2023-11-21T00:33:41;10.47;;;7.33;;
50968;SDS011;36982;51.474;7.228;2023-11-21T00:36:07;12.70;;;6.43;;
50968;SDS011;36982;51.474;7.228;2023-11-21T00:38:35;10.50;;;6.80;;
50968;SDS011;36982;51.474;7.228;2023-11-21T00:41:00;11.33;;;6.63;;
50968;SDS011;36982;51.474;7.228;2023-11-21T00:43:26;13.33;;;7.10;;
50968;SDS011;36982;51.474;7.228;2023-11-21T00:45:52;9.07;;;6.00;;
50968;SDS011;36982;51.474;7.228;2023-11-21T00:48:17;11.00;;;6.13;;
50968;SDS011;36982;51.474;7.228;2023-11-21T00:50:43;13.13;;;7.20;;
50968;SDS011;36982;51.474;7.228;2023-11-21T00:53:09;11.13;;;6.33;;
50968;SDS011;36982;51.474;7.228;2023-11-21T00:55:36;10.63;;;6.33;;
50968;SDS011;36982;51.474;7.228;2023-11-21T00:58:01;10.63;;;6.33;;
50968;SDS011;36982;51.474;7.228;2023-11-21T01:00:29;11.73;;;7.17;;
50968;SDS011;36982;51.474;7.228;2023-11-21T01:02:54;12.23;;;6.93;;
50968;SDS011;36982;51.474;7.228;2023-11-21T01:05:20;10.80;;;6.53;;
50968;SDS011;36982;51.474;7.228;2023-11-21T01:07:46;11.80;;;6.27;;
50968;SDS011;36982;51.474;7.228;2023-11-21T01:10:11;12.50;;;6.97;;
50968;SDS011;36982;51.474;7.228;2023-11-21T01:12:37;12.43;;;6.20;;
50968;SDS011;36982;51.474;7.228;2023-11-21T01:15:04;14.83;;;6.83;;
50968;SDS011;36982;51.474;7.228;2023-11-21T01:17:32;13.67;;;7.23;;
50968;SDS011;36982;51.474;7.228;2023-11-21T01:19:59;10.10;;;6.70;;
50968;SDS011;36982;51.474;7.228;2023-11-21T01:22:25;12.13;;;6.80;;
50968;SDS011;36982;51.474;7.228;2023-11-21T01:24:51;14.20;;;7.13;;
50968;SDS011;36982;51.474;7.228;2023-11-21T01:27:18;13.53;;;7.10;;
50968;SDS011;36982;51.474;7.228;2023-11-21T01:29:44;15.27;;;6.70;;
50968;SDS011;36982;51.474;7.228;2023-11-21T01:32:09;11.63;;;7.43;;
50968;SDS011;36982;51.474;7.228;2023-11-21T01:34:35;14.13;;;6.90;;
50968;SDS011;36982;51.474;7.228;2023-11-21T01:37:01;12.80;;;6.77;;
50968;SDS011;36982;51.474;7.228;2023-11-21T01:39:29;10.80;;;6.00;;
50968;SDS011;36982;51.474;7.228;2023-11-21T01:41:55;14.53;;;7.10;;
50968;SDS011;36982;51.474;7.228;2023-11-21T01:44:23;11.17;;;6.10;;
50968;SDS011;36982;51.474;7.228;2023-11-21T01:46:49;12.50;;;6.53;;
50968;SDS011;36982;51.474;7.228;2023-11-21T01:49:16;10.70;;;6.70;;
50968;SDS011;36982;51.474;7.228;2023-11-21T01:51:44;13.70;;;6.83;;
50968;SDS011;36982;51.474;7.228;2023-11-21T01:54:14;11.03;;;6.83;;
50968;SDS011;36982;51.474;7.228;2023-11-21T01:56:42;15.83;;;7.20;;
50968;SDS011;36982;51.474;7.228;2023-11-21T01:59:09;10.70;;;6.27;;
50968;SDS011;36982;51.474;7.228;2023-11-21T02:01:36;13.23;;;6.37;;
50968;SDS011;36982;51.474;7.228;2023-11-21T02:04:02;13.23;;;6.43;;
50968;SDS011;36982;51.474;7.228;2023-11-21T02:06:28;16.53;;;6.97;;
50968;SDS011;36982;51.474;7.228;2023-11-21T02:08:56;12.67;;;6.93;;
50968;SDS011;36982;51.474;7.228;2023-11-21T02:11:22;16.07;;;6.47;;
50968;SDS011;36982;51.474;7.228;2023-11-21T02:13:47;14.10;;;7.90;;
50968;SDS011;36982;51.474;7.228;2023-11-21T02:16:15;18.10;;;8.80;;
50968;SDS011;36982;51.474;7.228;2023-11-21T02:18:40;17.43;;;8.00;;
50968;SDS011;36982;51.474;7.228;2023-11-21T02:21:06;18.73;;;9.07;;
50968;SDS011;36982;51.474;7.228;2023-11-21T02:23:32;20.70;;;8.63;;
50968;SDS011;36982;51.474;7.228;2023-11-21T02:25:58;16.03;;;7.73;;
50968;SDS011;36982;51.474;7.228;2023-11-21T02:28:24;13.30;;;7.17;;
50968;SDS011;36982;51.474;7.228;2023-11-21T02:30:53;17.83;;;7.67;;
50968;SDS011;36982;51.474;7.228;2023-11-21T02:33:21;14.57;;;7.83;;
50968;SDS011;36982;51.474;7.228;2023-11-21T02:35:47;12.17;;;7.40;;
50968;SDS011;36982;51.474;7.228;2023-11-21T02:38:13;17.80;;;7.67;;
50968;SDS011;36982;51.474;7.228;2023-11-21T02:40:39;13.23;;;7.83;;
50968;SDS011;36982;51.474;7.228;2023-11-21T02:43:04;13.37;;;7.00;;
50968;SDS011;36982;51.474;7.228;2023-11-21T02:45:31;13.00;;;6.97;;
50968;SDS011;36982;51.474;7.228;2023-11-21T02:47:57;13.70;;;7.50;;
50968;SDS011;36982;51.474;7.228;2023-11-21T02:50:23;15.23;;;7.40;;
50968;SDS011;36982;51.474;7.228;2023-11-21T02:52:48;12.40;;;6.60;;
50968;SDS011;36982;51.474;7.228;2023-11-21T02:55:15;11.70;;;7.00;;
50968;SDS011;36982;51.474;7.228;2023-11-21T02:57:40;11.60;;;6.50;;
50968;SDS011;36982;51.474;7.228;2023-11-21T03:00:06;13.17;;;6.90;;
50968;SDS011;36982;51.474;7.228;2023-11-21T03:02:33;13.03;;;6.70;;
50968;SDS011;36982;51.474;7.228;2023-11-21T03:05:04;11.80;;;6.60;;
50968;SDS011;36982;51.474;7.228;2023-11-21T03:07:31;8.80;;;6.07;;
50968;SDS011;36982;51.474;7.228;2023-11-21T03:09:56;10.43;;;6.00;;
50968;SDS011;36982;51.474;7.228;2023-11-21T03:12:22;9.57;;;5.87;;
50968;SDS011;36982;51.474;7.228;2023-11-21T03:14:48;12.17;;;6.57;;
50968;SDS011;36982;51.474;7.228;2023-11-21T03:17:13;9.17;;;6.40;;
50968;SDS011;36982;51.474;7.228;2023-11-21T03:19:41;11.07;;;6.53;;
50968;SDS011;36982;51.474;7.228;2023-11-21T03:22:07;12.97;;;6.50;;
50968;SDS011;36982;51.474;7.228;2023-11-21T03:24:33;13.80;;;6.67;;
50968;SDS011;36982;51.474;7.228;2023-11-21T03:26:59;12.07;;;5.63;;
50968;SDS011;36982;51.474;7.228;2023-11-21T03:29:25;14.43;;;7.00;;
50968;SDS011;36982;51.474;7.228;2023-11-21T03:31:51;11.27;;;6.40;;
50968;SDS011;36982;51.474;7.228;2023-11-21T03:34:35;14.70;;;6.77;;
50968;SDS011;36982;51.474;7.228;2023-11-21T03:37:00;11.40;;;7.10;;
50968;SDS011;36982;51.474;7.228;2023-11-21T03:39:26;13.33;;;7.00;;
50968;SDS011;36982;51.474;7.228;2023-11-21T03:41:51;15.07;;;6.90;;
50968;SDS011;36982;51.474;7.228;2023-11-21T03:44:17;10.13;;;6.33;;
50968;SDS011;36982;51.474;7.228;2023-11-21T03:46:43;10.87;;;6.20;;
50968;SDS011;36982;51.474;7.228;2023-11-21T03:49:09;12.40;;;6.93;;
50968;SDS011;36982;51.474;7.228;2023-11-21T03:51:36;9.47;;;6.30;;
50968;SDS011;36982;51.474;7.228;2023-11-21T03:54:02;10.70;;;6.30;;
50968;SDS011;36982;51.474;7.228;2023-11-21T03:56:28;11.17;;;6.60;;
50968;SDS011;36982;51.474;7.228;2023-11-21T03:58:53;10.40;;;6.00;;
50968;SDS011;36982;51.474;7.228;2023-11-21T04:01:20;11.10;;;6.60;;
50968;SDS011;36982;51.474;7.228;2023-11-21T04:03:49;10.93;;;6.60;;
50968;SDS011;36982;51.474;7.228;2023-11-21T04:06:16;12.30;;;6.97;;
50968;SDS011;36982;51.474;7.228;2023-11-21T04:08:42;10.87;;;7.10;;
50968;SDS011;36982;51.474;7.228;2023-11-21T04:11:11;14.67;;;6.60;;
50968;SDS011;36982;51.474;7.228;2023-11-21T04:13:37;14.57;;;6.67;;
50968;SDS011;36982;51.474;7.228;2023-11-21T04:16:05;12.13;;;7.10;;
50968;SDS011;36982;51.474;7.228;2023-11-21T04:18:31;15.37;;;7.37;;
50968;SDS011;36982;51.474;7.228;2023-11-21T04:20:57;12.03;;;6.57;;
50968;SDS011;36982;51.474;7.228;2023-11-21T04:23:22;13.33;;;6.90;;
50968;SDS011;36982;51.474;7.228;2023-11-21T04:25:48;14.80;;;7.40;;
50968;SDS011;36982;51.474;7.228;2023-11-21T04:28:13;17.23;;;7.60;;
50968;SDS011;36982;51.474;7.228;2023-11-21T04:30:39;12.90;;;7.47;;
50968;SDS011;36982;51.474;7.228;2023-11-21T04:33:05;15.00;;;7.67;;
50968;SDS011;36982;51.474;7.228;2023-11-21T04:35:32;13.17;;;7.67;;
50968;SDS011;36982;51.474;7.228;2023-11-21T04:37:58;12.70;;;7.23;;
50968;SDS011;36982;51.474;7.228;2023-11-21T04:40:23;13.63;;;7.13;;
50968;SDS011;36982;51.474;7.228;2023-11-21T04:42:49;13.43;;;8.17;;
50968;SDS011;36982;51.474;7.228;2023-11-21T04:45:15;10.80;;;6.83;;
50968;SDS011;36982;51.474;7.228;2023-11-21T04:47:40;11.23;;;7.30;;
50968;SDS011;36982;51.474;7.228;2023-11-21T04:50:06;12.50;;;7.10;;
50968;SDS011;36982;51.474;7.228;2023-11-21T04:52:32;12.83;;;6.53;;
50968;SDS011;36982;51.474;7.228;2023-11-21T04:54:58;13.00;;;7.40;;
50968;SDS011;36982;51.474;7.228;2023-11-21T04:57:26;13.87;;;6.57;;
50968;SDS011;36982;51.474;7.228;2023-11-21T04:59:53;10.70;;;6.67;;
50968;SDS011;36982;51.474;7.228;2023-11-21T05:02:19;11.47;;;6.93;;
50968;SDS011;36982;51.474;7.228;2023-11-21T05:04:46;10.63;;;6.70;;
50968;SDS011;36982;51.474;7.228;2023-11-21T05:07:12;15.93;;;6.70;;
50968;SDS011;36982;51.474;7.228;2023-11-21T05:09:42;14.50;;;6.63;;
50968;SDS011;36982;51.474;7.228;2023-11-21T05:12:14;13.10;;;6.83;;
50968;SDS011;36982;51.474;7.228;2023-11-21T05:14:40;15.23;;;6.47;;
50968;SDS011;36982;51.474;7.228;2023-11-21T05:17:06;15.00;;;7.23;;
50968;SDS011;36982;51.474;7.228;2023-11-21T05:19:33;12.73;;;6.43;;
50968;SDS011;36982;51.474;7.228;2023-11-21T05:22:00;13.50;;;6.83;;
50968;SDS011;36982;51.474;7.228;2023-11-21T05:24:25;12.97;;;7.30;;
50968;SDS011;36982;51.474;7.228;2023-11-21T05:26:51;15.50;;;8.13;;
50968;SDS011;36982;51.474;7.228;2023-11-21T05:29:17;11.67;;;7.13;;
50968;SDS011;36982;51.474;7.228;2023-11-21T05:31:43;11.63;;;6.60;;
50968;SDS011;36982;51.474;7.228;2023-11-21T05:34:08;11.07;;;6.40;;
50968;SDS011;36982;51.474;7.228;2023-11-21T05:36:34;11.17;;;6.43;;
50968;SDS011;36982;51.474;7.228;2023-11-21T05:39:00;11.27;;;6.30;;
50968;SDS011;36982;51.474;7.228;2023-11-21T05:41:25;9.90;;;6.13;;
50968;SDS011;36982;51.474;7.228;2023-11-21T05:43:51;14.70;;;7.07;;
50968;SDS011;36982;51.474;7.228;2023-11-21T05:46:16;15.60;;;6.60;;
50968;SDS011;36982;51.474;7.228;2023-11-21T05:48:43;12.83;;;7.10;;
50968;SDS011;36982;51.474;7.228;2023-11-21T05:51:08;14.37;;;7.17;;
50968;SDS011;36982;51.474;7.228;2023-11-21T05:53:34;12.13;;;6.97;;
50968;SDS011;36982;51.474;7.228;2023-11-21T05:55:59;15.83;;;7.20;;
50968;SDS011;36982;51.474;7.228;2023-11-21T05:58:25;10.97;;;6.20;;
50968;SDS011;36982;51.474;7.228;2023-11-21T06:00:51;12.03;;;6.80;;
50968;SDS011;36982;51.474;7.228;2023-11-21T06:03:16;13.03;;;7.27;;
50968;SDS011;36982;51.474;7.228;2023-11-21T06:05:42;8.93;;;6.30;;
50968;SDS011;36982;51.474;7.228;2023-11-21T06:08:08;13.33;;;6.80;;
50968;SDS011;36982;51.474;7.228;2023-11-21T06:10:34;11.90;;;7.13;;
50968;SDS011;36982;51.474;7.228;2023-11-21T06:12:59;10.70;;;6.20;;
50968;SDS011;36982;51.474;7.228;2023-11-21T06:15:25;16.17;;;6.80;;
50968;SDS011;36982;51.474;7.228;2023-11-21T06:17:50;10.57;;;5.93;;
50968;SDS011;36982;51.474;7.228;2023-11-21T06:20:20;12.90;;;6.70;;
50968;SDS011;36982;51.474;7.228;2023-11-21T06:22:47;11.37;;;6.40;;
50968;SDS011;36982;51.474;7.228;2023-11-21T06:25:15;11.97;;;6.30;;
50968;SDS011;36982;51.474;7.228;2023-11-21T06:27:41;8.83;;;5.60;;
50968;SDS011;36982;51.474;7.228;2023-11-21T06:30:08;9.20;;;6.20;;
50968;SDS011;36982;51.474;7.228;2023-11-21T06:32:35;9.90;;;6.07;;
50968;SDS011;36982;51.474;7.228;2023-11-21T06:35:01;12.60;;;6.67;;
50968;SDS011;36982;51.474;7.228;2023-11-21T06:37:29;12.83;;;6.67;;
50968;SDS011;36982;51.474;7.228;2023-11-21T06:39:54;15.87;;;7.50;;
50968;SDS011;36982;51.474;7.228;2023-11-21T06:42:21;11.57;;;7.67;;
50968;SDS011;36982;51.474;7.228;2023-11-21T06:44:47;12.70;;;6.57;;
50968;SDS011;36982;51.474;7.228;2023-11-21T06:47:14;13.27;;;6.97;;
50968;SDS011;36982;51.474;7.228;2023-11-21T06:49:40;13.30;;;7.83;;
50968;SDS011;36982;51.474;7.228;2023-11-21T06:52:08;12.17;;;7.80;;
50968;SDS011;36982;51.474;7.228;2023-11-21T06:54:33;12.80;;;7.17;;
50968;SDS011;36982;51.474;7.228;2023-11-21T06:57:00;13.00;;;7.37;;
50968;SDS011;36982;51.474;7.228;2023-11-21T06:59:28;12.47;;;6.93;;
50968;SDS011;36982;51.474;7.228;2023-11-21T07:01:54;14.07;;;7.30;;
50968;SDS011;36982;51.474;7.228;2023-11-21T07:04:19;14.27;;;7.67;;
50968;SDS011;36982;51.474;7.228;2023-11-21T07:06:45;14.17;;;7.67;;
50968;SDS011;36982;51.474;7.228;2023-11-21T07:09:10;15.97;;;8.20;;
50968;SDS011;36982;51.474;7.228;2023-11-21T07:11:36;14.97;;;8.23;;
50968;SDS011;36982;51.474;7.228;2023-11-21T07:14:03;17.57;;;8.60;;
50968;SDS011;36982;51.474;7.228;2023-11-21T07:16:33;16.57;;;8.33;;
50968;SDS011;36982;51.474;7.228;2023-11-21T07:19:06;15.90;;;8.97;;
50968;SDS011;36982;51.474;7.228;2023-11-21T07:21:32;20.30;;;8.83;;
50968;SDS011;36982;51.474;7.228;2023-11-21T07:23:59;21.33;;;9.23;;
50968;SDS011;36982;51.474;7.228;2023-11-21T07:26:26;20.27;;;8.80;;
50968;SDS011;36982;51.474;7.228;2023-11-21T07:28:52;15.33;;;8.17;;
50968;SDS011;36982;51.474;7.228;2023-11-21T07:31:18;16.30;;;8.93;;
50968;SDS011;36982;51.474;7.228;2023-11-21T07:33:44;17.13;;;8.37;;
50968;SDS011;36982;51.474;7.228;2023-11-21T07:36:12;17.80;;;9.47;;
50968;SDS011;36982;51.474;7.228;2023-11-21T07:38:38;16.73;;;8.77;;
50968;SDS011;36982;51.474;7.228;2023-11-21T07:41:04;18.13;;;9.27;;
50968;SDS011;36982;51.474;7.228;2023-11-21T07:43:30;17.63;;;8.97;;
50968;SDS011;36982;51.474;7.228;2023-11-21T07:46:00;16.33;;;8.80;;
50968;SDS011;36982;51.474;7.228;2023-11-21T07:48:28;17.33;;;8.53;;
50968;SDS011;36982;51.474;7.228;2023-11-21T07:50:53;16.53;;;8.70;;
50968;SDS011;36982;51.474;7.228;2023-11-21T07:53:19;16.63;;;8.93;;
50968;SDS011;36982;51.474;7.228;2023-11-21T07:55:45;18.20;;;9.57;;
50968;SDS011;36982;51.474;7.228;2023-11-21T07:58:12;21.33;;;9.50;;
50968;SDS011;36982;51.474;7.228;2023-11-21T08:00:38;21.50;;;9.40;;
50968;SDS011;36982;51.474;7.228;2023-11-21T08:03:04;16.83;;;8.80;;
50968;SDS011;36982;51.474;7.228;2023-11-21T08:05:30;20.73;;;9.03;;
50968;SDS011;36982;51.474;7.228;2023-11-21T08:07:56;19.20;;;9.00;;
50968;SDS011;36982;51.474;7.228;2023-11-21T08:10:22;18.63;;;10.10;;
50968;SDS011;36982;51.474;7.228;2023-11-21T08:12:48;18.40;;;9.97;;
50968;SDS011;36982;51.474;7.228;2023-11-21T08:15:16;21.30;;;10.33;;
50968;SDS011;36982;51.474;7.228;2023-11-21T08:17:41;19.87;;;10.43;;
50968;SDS011;36982;51.474;7.228;2023-11-21T08:20:07;22.60;;;11.07;;
50968;SDS011;36982;51.474;7.228;2023-11-21T08:22:35;19.90;;;10.97;;
50968;SDS011;36982;51.474;7.228;2023-11-21T08:25:01;24.43;;;11.13;;
50968;SDS011;36982;51.474;7.228;2023-11-21T08:27:29;22.20;;;11.87;;
50968;SDS011;36982;51.474;7.228;2023-11-21T08:29:55;25.63;;;11.97;;
50968;SDS011;36982;51.474;7.228;2023-11-21T08:32:22;26.80;;;11.10;;
50968;SDS011;36982;51.474;7.228;2023-11-21T08:34:47;23.03;;;12.03;;
50968;SDS011;36982;51.474;7.228;2023-11-21T08:37:16;25.43;;;12.60;;
50968;SDS011;36982;51.474;7.228;2023-11-21T08:39:41;23.27;;;11.93;;
50968;SDS011;36982;51.474;7.228;2023-11-21T08:42:08;26.30;;;13.10;;
50968;SDS011;36982;51.474;7.228;2023-11-21T08:44:34;24.83;;;12.67;;
50968;SDS011;36982;51.474;7.228;2023-11-21T08:46:59;25.30;;;12.27;;
50968;SDS011;36982;51.474;7.228;2023-11-21T08:49:25;24.30;;;12.30;;
50968;SDS011;36982;51.474;7.228;2023-11-21T08:51:52;28.03;;;11.60;;
50968;SDS011;36982;51.474;7.228;2023-11-21T08:54:20;27.63;;;12.13;;
50968;SDS011;36982;51.474;7.228;2023-11-21T08:56:46;27.10;;;12.77;;
50968;SDS011;36982;51.474;7.228;2023-11-21T08:59:12;26.23;;;12.07;;
50968;SDS011;36982;51.474;7.228;2023-11-21T09:01:39;26.13;;;13.50;;
50968;SDS011;36982;51.474;7.228;2023-11-21T09:04:05;26.40;;;12.50;;
50968;SDS011;36982;51.474;7.228;2023-11-21T09:06:31;26.30;;;14.50;;
50968;SDS011;36982;51.474;7.228;2023-11-21T09:08:57;31.70;;;15.33;;
50968;SDS011;36982;51.474;7.228;2023-11-21T09:11:23;27.53;;;13.87;;
50968;SDS011;36982;51.474;7.228;2023-11-21T09:13:50;36.47;;;15.67;;
50968;SDS011;36982;51.474;7.228;2023-11-21T09:16:16;27.27;;;13.87;;
50968;SDS011;36982;51.474;7.228;2023-11-21T09:18:42;29.93;;;14.17;;
50968;SDS011;36982;51.474;7.228;2023-11-21T09:21:07;30.27;;;14.20;;
50968;SDS011;36982;51.474;7.228;2023-11-21T09:23:34;35.53;;;15.13;;
50968;SDS011;36982;51.474;7.228;2023-11-21T09:26:00;33.90;;;14.97;;
50968;SDS011;36982;51.474;7.228;2023-11-21T09:28:26;33.30;;;15.90;;
50968;SDS011;36982;51.474;7.228;2023-11-21T09:30:52;31.97;;;15.17;;
50968;SDS011;36982;51.474;7.228;2023-11-21T09:33:18;30.57;;;14.90;;
50968;SDS011;36982;51.474;7.228;2023-11-21T09:35:44;36.97;;;16.60;;
50968;SDS011;36982;51.474;7.228;2023-11-21T09:38:10;34.90;;;16.03;;
50968;SDS011;36982;51.474;7.228;2023-11-21T09:40:36;35.33;;;15.83;;
50968;SDS011;36982;51.474;7.228;2023-11-21T09:43:03;34.20;;;16.57;;
50968;SDS011;36982;51.474;7.228;2023-11-21T09:45:41;34.63;;;17.73;;
50968;SDS011;36982;51.474;7.228;2023-11-21T09:48:18;31.90;;;15.80;;
50968;SDS011;36982;51.474;7.228;2023-11-21T09:50:45;34.77;;;16.37;;
50968;SDS011;36982;51.474;7.228;2023-11-21T09:53:13;33.33;;;16.60;;
50968;SDS011;36982;51.474;7.228;2023-11-21T09:55:44;35.73;;;17.77;;
50968;SDS011;36982;51.474;7.228;2023-11-21T09:58:12;36.17;;;17.37;;
50968;SDS011;36982;51.474;7.228;2023-11-21T10:00:40;37.87;;;18.53;;
50968;SDS011;36982;51.474;7.228;2023-11-21T10:03:07;35.03;;;17.77;;
50968;SDS011;36982;51.474;7.228;2023-11-21T10:05:34;40.97;;;19.23;;
50968;SDS011;36982;51.474;7.228;2023-11-21T10:08:09;43.30;;;19.60;;
50968;SDS011;36982;51.474;7.228;2023-11-21T10:10:36;41.90;;;18.67;;
50968;SDS011;36982;51.474;7.228;2023-11-21T10:13:03;38.40;;;17.57;;
50968;SDS011;36982;51.474;7.228;2023-11-21T10:15:33;37.30;;;18.40;;
50968;SDS011;36982;51.474;7.228;2023-11-21T10:18:04;42.20;;;18.37;;
50968;SDS011;36982;51.474;7.228;2023-11-21T10:20:32;44.27;;;19.23;;
50968;SDS011;36982;51.474;7.228;2023-11-21T10:23:03;40.07;;;19.00;;
50968;SDS011;36982;51.474;7.228;2023-11-21T10:25:32;42.63;;;19.53;;
50968;SDS011;36982;51.474;7.228;2023-11-21T10:28:01;41.63;;;19.30;;
50968;SDS011;36982;51.474;7.228;2023-11-21T10:30:34;45.47;;;19.13;;
50968;SDS011;36982;51.474;7.228;2023-11-21T10:33:02;43.00;;;19.23;;
50968;SDS011;36982;51.474;7.228;2023-11-21T10:35:42;40.87;;;18.93;;
50968;SDS011;36982;51.474;7.228;2023-11-21T10:38:13;40.80;;;17.83;;
50968;SDS011;36982;51.474;7.228;2023-11-21T10:40:42;39.27;;;17.47;;
50968;SDS011;36982;51.474;7.228;2023-11-21T10:43:11;39.10;;;18.00;;
50968;SDS011;36982;51.474;7.228;2023-11-21T10:45:38;36.87;;;17.60;;
50968;SDS011;36982;51.474;7.228;2023-11-21T10:48:05;40.80;;;17.60;;
50968;SDS011;36982;51.474;7.228;2023-11-21T10:50:33;36.27;;;16.77;;
50968;SDS011;36982;51.474;7.228;2023-11-21T10:53:05;36.93;;;17.77;;
50968;SDS011;36982;51.474;7.228;2023-11-21T10:55:31;41.83;;;18.03;;
50968;SDS011;36982;51.474;7.228;2023-11-21T10:57:58;41.43;;;19.90;;
50968;SDS011;36982;51.474;7.228;2023-11-21T11:00:27;47.97;;;20.17;;
50968;SDS011;36982;51.474;7.228;2023-11-21T11:02:53;44.57;;;20.13;;
50968;SDS011;36982;51.474;7.228;2023-11-21T11:05:20;43.47;;;20.30;;
50968;SDS011;36982;51.474;7.228;2023-11-21T11:07:51;43.83;;;18.60;;
50968;SDS011;36982;51.474;7.228;2023-11-21T11:10:25;42.87;;;18.73;;
50968;SDS011;36982;51.474;7.228;2023-11-21T11:12:52;51.30;;;20.17;;
50968;SDS011;36982;51.474;7.228;2023-11-21T11:15:22;44.27;;;19.13;;
50968;SDS011;36982;51.474;7.228;2023-11-21T11:17:48;42.40;;;19.67;;
50968;SDS011;36982;51.474;7.228;2023-11-21T11:20:15;46.87;;;19.00;;
50968;SDS011;36982;51.474;7.228;2023-11-21T11:22:44;41.80;;;18.70;;
50968;SDS011;36982;51.474;7.228;2023-11-21T11:32:55;45.67;;;20.00;;
50968;SDS011;36982;51.474;7.228;2023-11-21T11:38:18;45.73;;;19.30;;
50968;SDS011;36982;51.474;7.228;2023-11-21T11:40:46;48.30;;;20.77;;
50968;SDS011;36982;51.474;7.228;2023-11-21T11:43:12;46.57;;;20.83;;
50968;SDS011;36982;51.474;7.228;2023-11-21T11:45:38;47.60;;;20.63;;
50968;SDS011;36982;51.474;7.228;2023-11-21T11:48:07;46.43;;;20.37;;
50968;SDS011;36982;51.474;7.228;2023-11-21T11:50:41;47.23;;;19.13;;
50968;SDS011;36982;51.474;7.228;2023-11-21T11:53:25;42.53;;;18.63;;
50968;SDS011;36982;51.474;7.228;2023-11-21T11:55:57;40.90;;;18.33;;
50968;SDS011;36982;51.474;7.228;2023-11-21T11:58:51;33.80;;;18.07;;
50968;SDS011;36982;51.474;7.228;2023-11-21T12:01:27;40.20;;;17.37;;
50968;SDS011;36982;51.474;7.228;2023-11-21T12:06:59;19.97;;;11.63;;
50968;SDS011;36982;51.474;7.228;2023-11-21T12:09:27;34.30;;;16.03;;
50968;SDS011;36982;51.474;7.228;2023-11-21T12:11:55;29.23;;;15.93;;
50968;SDS011;36982;51.474;7.228;2023-11-21T12:14:23;29.60;;;14.70;;
50968;SDS011;36982;51.474;7.228;2023-11-21T12:16:49;30.70;;;16.23;;
50968;SDS011;36982;51.474;7.228;2023-11-21T12:19:16;25.43;;;13.37;;
50968;SDS011;36982;51.474;7.228;2023-11-21T12:21:42;24.00;;;11.50;;
50968;SDS011;36982;51.474;7.228;2023-11-21T12:24:09;26.57;;;12.37;;
50968;SDS011;36982;51.474;7.228;2023-11-21T12:26:35;21.47;;;11.97;;
50968;SDS011;36982;51.474;7.228;2023-11-21T12:29:03;28.60;;;12.87;;
50968;SDS011;36982;51.474;7.228;2023-11-21T12:31:29;26.40;;;12.43;;
50968;SDS011;36982;51.474;7.228;2023-11-21T12:33:55;23.93;;;12.83;;
50968;SDS011;36982;51.474;7.228;2023-11-21T12:36:22;25.43;;;12.30;;
50968;SDS011;36982;51.474;7.228;2023-11-21T12:38:49;19.97;;;11.73;;
50968;SDS011;36982;51.474;7.228;2023-11-21T12:41:15;18.93;;;10.23;;
50968;SDS011;36982;51.474;7.228;2023-11-21T12:43:42;19.90;;;10.40;;
50968;SDS011;36982;51.474;7.228;2023-11-21T12:46:08;16.70;;;9.53;;
50968;SDS011;36982;51.474;7.228;2023-11-21T12:48:43;14.53;;;8.50;;
50968;SDS011;36982;51.474;7.228;2023-11-21T12:51:10;13.00;;;7.47;;
50968;SDS011;36982;51.474;7.228;2023-11-21T12:53:37;10.70;;;6.57;;
50968;SDS011;36982;51.474;7.228;2023-11-21T12:56:07;13.00;;;7.10;;
50968;SDS011;36982;51.474;7.228;2023-11-21T12:58:36;12.33;;;8.13;;
50968;SDS011;36982;51.474;7.228;2023-11-21T13:01:09;12.30;;;7.70;;
50968;SDS011;36982;51.474;7.228;2023-11-21T13:03:39;12.53;;;8.07;;
50968;SDS011;36982;51.474;7.228;2023-11-21T13:06:06;14.47;;;9.10;;
50968;SDS011;36982;51.474;7.228;2023-11-21T13:08:32;15.43;;;9.10;;
50968;SDS011;36982;51.474;7.228;2023-11-21T13:10:59;12.57;;;8.70;;
50968;SDS011;36982;51.474;7.228;2023-11-21T13:13:26;14.67;;;9.33;;
50968;SDS011;36982;51.474;7.228;2023-11-21T13:15:54;14.40;;;9.27;;
50968;SDS011;36982;51.474;7.228;2023-11-21T13:18:21;13.87;;;8.87;;
50968;SDS011;36982;51.474;7.228;2023-11-21T13:20:48;14.20;;;8.50;;
50968;SDS011;36982;51.474;7.228;2023-11-21T13:23:14;12.43;;;8.43;;
50968;SDS011;36982;51.474;7.228;2023-11-21T13:25:43;15.20;;;7.67;;
50968;SDS011;36982;51.474;7.228;2023-11-21T13:28:10;13.93;;;8.40;;
50968;SDS011;36982;51.474;7.228;2023-11-21T13:30:36;16.90;;;9.80;;
50968;SDS011;36982;51.474;7.228;2023-11-21T13:33:02;13.63;;;8.60;;
50968;SDS011;36982;51.474;7.228;2023-11-21T13:35:32;8.63;;;5.33;;
50968;SDS011;36982;51.474;7.228;2023-11-21T13:38:06;16.53;;;9.07;;
50968;SDS011;36982;51.474;7.228;2023-11-21T13:40:34;14.23;;;8.87;;
50968;SDS011;36982;51.474;7.228;2023-11-21T13:43:07;19.03;;;9.27;;
50968;SDS011;36982;51.474;7.228;2023-11-21T13:45:38;18.43;;;9.73;;
50968;SDS011;36982;51.474;7.228;2023-11-21T13:48:05;15.40;;;8.60;;
50968;SDS011;36982;51.474;7.228;2023-11-21T13:50:35;16.30;;;8.70;;
50968;SDS011;36982;51.474;7.228;2023-11-21T13:53:01;17.00;;;9.00;;
50968;SDS011;36982;51.474;7.228;2023-11-21T13:55:34;18.67;;;9.83;;
50968;SDS011;36982;51.474;7.228;2023-11-21T13:58:00;15.83;;;8.70;;
50968;SDS011;36982;51.474;7.228;2023-11-21T14:00:34;16.00;;;8.23;;
50968;SDS011;36982;51.474;7.228;2023-11-21T14:03:13;18.97;;;9.33;;
50968;SDS011;36982;51.474;7.228;2023-11-21T14:05:45;17.67;;;8.97;;
50968;SDS011;36982;51.474;7.228;2023-11-21T14:08:22;15.03;;;9.00;;
50968;SDS011;36982;51.474;7.228;2023-11-21T14:10:53;17.77;;;9.13;;
50968;SDS011;36982;51.474;7.228;2023-11-21T14:13:24;17.20;;;8.07;;
50968;SDS011;36982;51.474;7.228;2023-11-21T14:15:50;14.93;;;8.33;;
50968;SDS011;36982;51.474;7.228;2023-11-21T14:18:22;14.90;;;8.50;;
50968;SDS011;36982;51.474;7.228;2023-11-21T14:21:03;16.40;;;8.73;;
50968;SDS011;36982;51.474;7.228;2023-11-21T14:23:31;18.90;;;9.30;;
50968;SDS011;36982;51.474;7.228;2023-11-21T14:25:58;17.13;;;9.10;;
50968;SDS011;36982;51.474;7.228;2023-11-21T14:28:26;16.40;;;9.20;;
50968;SDS011;36982;51.474;7.228;2023-11-21T14:30:51;18.27;;;8.77;;
50968;SDS011;36982;51.474;7.228;2023-11-21T14:33:17;14.80;;;7.93;;
50968;SDS011;36982;51.474;7.228;2023-11-21T14:35:43;11.30;;;7.23;;
50968;SDS011;36982;51.474;7.228;2023-11-21T14:38:09;9.20;;;5.60;;
50968;SDS011;36982;51.474;7.228;2023-11-21T14:40:35;11.00;;;5.73;;
50968;SDS011;36982;51.474;7.228;2023-11-21T14:43:04;11.40;;;6.20;;
50968;SDS011;36982;51.474;7.228;2023-11-21T14:45:33;11.63;;;6.07;;